createdAt,value
2022-11-22T00:00:42.220Z,97352.03
2022-11-22T00:03:09.931Z,97353.53
2022-11-22T00:05:37.207Z,97348.41
2022-11-22T00:08:04.481Z,97349.72
2022-11-22T00:10:31.932Z,97350.56
2022-11-22T00:12:58.995Z,97360.53
2022-11-22T00:15:26.020Z,97358.81
2022-11-22T00:17:53.188Z,97357.69
2022-11-22T00:20:20.061Z,97358.50
2022-11-22T00:22:47.058Z,97363.81
2022-11-22T00:25:14.752Z,97354.81
2022-11-22T00:27:41.733Z,97363.41
2022-11-22T00:30:09.813Z,97367.72
2022-11-22T00:32:37.093Z,97375.81
2022-11-22T00:35:04.698Z,97378.56
2022-11-22T00:37:31.873Z,97364.13
2022-11-22T00:39:58.771Z,97385.06
2022-11-22T00:42:25.758Z,97380.53
2022-11-22T00:44:52.727Z,97367.91
2022-11-22T00:47:19.781Z,97387.28
2022-11-22T00:49:46.721Z,97387.25
2022-11-22T00:52:13.990Z,97394.38
2022-11-22T00:54:41.041Z,97400.22
2022-11-22T00:57:07.905Z,97402.13
2022-11-22T00:59:34.832Z,97395.13
2022-11-22T01:02:01.770Z,97414.19
2022-11-22T01:04:28.781Z,97404.06
2022-11-22T01:06:55.957Z,97404.75
2022-11-22T01:09:24.523Z,97411.13
2022-11-22T01:11:51.766Z,97404.13
2022-11-22T01:14:19.868Z,97401.47
2022-11-22T01:16:47.291Z,97392.25
2022-11-22T01:19:15.987Z,97399.69
2022-11-22T01:21:42.949Z,97383.09
2022-11-22T01:24:10.299Z,97385.69
2022-11-22T01:26:37.424Z,97371.50
2022-11-22T01:29:05.282Z,97374.28
2022-11-22T01:31:32.590Z,97379.97
2022-11-22T01:33:59.683Z,97369.44
2022-11-22T01:36:27.626Z,97357.38
2022-11-22T01:38:54.693Z,97373.59
2022-11-22T01:41:22.160Z,97361.44
2022-11-22T01:43:49.599Z,97364.03
2022-11-22T01:46:35.147Z,97359.25
2022-11-22T01:49:13.637Z,97356.66
2022-11-22T01:51:49.807Z,97356.22
2022-11-22T01:54:22.861Z,97355.56
2022-11-22T01:56:55.360Z,97358.84
2022-11-22T01:59:26.829Z,97348.84
2022-11-22T02:01:54.709Z,97343.81
2022-11-22T02:04:23.970Z,97343.75
2022-11-22T02:08:11.896Z,97353.88
2022-11-22T02:10:50.629Z,97342.47
2022-11-22T02:13:40.811Z,97345.47
2022-11-22T02:16:25.612Z,97345.16
2022-11-22T02:19:06.725Z,97341.16
2022-11-22T02:21:54.957Z,97336.69
2022-11-22T02:25:18.286Z,97332.84
2022-11-22T02:27:52.910Z,97333.53
2022-11-22T02:30:19.974Z,97324.91
2022-11-22T02:32:46.882Z,97337.53
2022-11-22T02:35:23.912Z,97342.50
2022-11-22T02:37:55.612Z,97328.91
2022-11-22T02:40:23.617Z,97317.94
2022-11-22T02:42:59.101Z,97313.41
2022-11-22T02:45:26.075Z,97302.81
2022-11-22T02:47:53.048Z,97317.56
2022-11-22T02:50:20.030Z,97311.59
2022-11-22T02:52:46.877Z,97317.78
2022-11-22T02:55:13.893Z,97317.66
2022-11-22T02:57:40.828Z,97311.00
2022-11-22T03:00:08.307Z,97304.03
2022-11-22T03:02:35.207Z,97299.84
2022-11-22T03:05:02.152Z,97302.22
2022-11-22T03:07:29.085Z,97305.00
2022-11-22T03:09:56.063Z,97301.66
2022-11-22T03:12:23.007Z,97297.53
2022-11-22T03:14:49.930Z,97303.66
2022-11-22T03:17:16.999Z,97286.72
2022-11-22T03:19:43.969Z,97305.94
2022-11-22T03:22:11.717Z,97302.81
2022-11-22T03:24:38.774Z,97309.09
2022-11-22T03:27:05.670Z,97310.31
2022-11-22T03:29:32.808Z,97309.00
2022-11-22T03:31:59.903Z,97309.00
2022-11-22T03:34:26.906Z,97316.94
2022-11-22T03:36:53.810Z,97308.16
2022-11-22T03:39:20.678Z,97313.94
2022-11-22T03:41:47.597Z,97304.16
2022-11-22T03:44:14.534Z,97298.94
2022-11-22T03:46:41.547Z,97289.63
2022-11-22T03:49:08.521Z,97292.34
2022-11-22T03:51:35.433Z,97290.53
2022-11-22T03:54:02.303Z,97302.94
2022-11-22T03:56:29.251Z,97309.66
2022-11-22T03:58:56.134Z,97310.34
2022-11-22T04:01:23.163Z,97304.22
2022-11-22T04:03:50.244Z,97306.19
2022-11-22T04:06:17.135Z,97307.31
2022-11-22T04:08:44.252Z,97298.88
2022-11-22T04:11:11.181Z,97302.19
2022-11-22T04:13:56.517Z,97295.81
2022-11-22T04:16:23.535Z,97290.03
2022-11-22T04:18:50.431Z,97295.75
2022-11-22T04:21:35.788Z,97310.22
2022-11-22T04:24:28.110Z,97291.81
2022-11-22T04:26:55.910Z,97292.13
2022-11-22T04:29:23.744Z,97286.16
2022-11-22T04:32:09.825Z,97291.31
2022-11-22T04:34:37.515Z,97287.16
2022-11-22T04:37:05.983Z,97291.63
2022-11-22T04:39:33.587Z,97294.41
2022-11-22T04:42:19.614Z,97281.34
2022-11-22T04:44:46.788Z,97261.78
2022-11-22T04:47:35.015Z,97271.00
2022-11-22T04:50:03.085Z,97282.94
2022-11-22T04:52:48.777Z,97287.25
2022-11-22T04:55:15.779Z,97286.41
2022-11-22T04:57:42.694Z,97291.84
2022-11-22T05:00:10.246Z,97290.38
2022-11-22T05:02:37.174Z,97285.06
2022-11-22T05:05:04.129Z,97287.84
2022-11-22T05:07:31.242Z,97283.72
2022-11-22T05:09:58.214Z,97279.69
2022-11-22T05:12:25.155Z,97290.81
2022-11-22T05:14:52.131Z,97289.63
2022-11-22T05:17:19.122Z,97283.94
2022-11-22T05:19:49.166Z,97283.88
2022-11-22T05:22:17.690Z,97282.91
2022-11-22T05:24:44.609Z,97286.16
2022-11-22T05:27:11.496Z,97288.94
2022-11-22T05:29:38.398Z,97279.72
2022-11-22T05:32:05.375Z,97277.75
2022-11-22T05:34:32.269Z,97283.25
2022-11-22T05:36:59.464Z,97284.78
2022-11-22T05:39:26.454Z,97282.66
2022-11-22T05:41:56.278Z,97282.34
2022-11-22T05:44:24.258Z,97276.53
2022-11-22T05:46:51.313Z,97293.75
2022-11-22T05:49:18.248Z,97289.94
2022-11-22T05:51:45.227Z,97293.09
2022-11-22T05:54:12.204Z,97292.91
2022-11-22T05:56:39.723Z,97258.84
2022-11-22T05:59:06.583Z,97294.53
2022-11-22T06:01:33.516Z,97291.50
2022-11-22T06:04:00.465Z,97299.75
2022-11-22T06:06:27.357Z,97289.50
2022-11-22T06:08:54.362Z,97287.50
2022-11-22T06:11:23.638Z,97292.66
2022-11-22T06:13:52.802Z,97299.38
2022-11-22T06:16:19.851Z,97300.69
2022-11-22T06:18:47.089Z,97304.31
2022-11-22T06:21:16.742Z,97299.84
2022-11-22T06:23:44.109Z,97297.34
2022-11-22T06:26:16.635Z,97303.00
2022-11-22T06:28:44.782Z,97301.72
2022-11-22T06:31:26.788Z,97300.06
2022-11-22T06:33:55.442Z,97303.31
2022-11-22T06:36:25.320Z,97306.94
2022-11-22T06:38:52.989Z,97305.59
2022-11-22T06:41:22.373Z,97313.91
2022-11-22T06:43:51.155Z,97309.59
2022-11-22T06:46:20.566Z,97322.59
2022-11-22T06:48:48.222Z,97321.38
2022-11-22T06:51:19.649Z,97322.41
2022-11-22T06:53:48.767Z,97321.81
2022-11-22T06:56:36.042Z,97335.13
2022-11-22T06:59:05.196Z,97327.88
2022-11-22T07:01:34.219Z,97330.88
2022-11-22T07:04:02.351Z,97339.31
2022-11-22T07:06:35.076Z,97322.81
2022-11-22T07:09:03.614Z,97331.53
2022-11-22T07:11:32.171Z,97324.97
2022-11-22T07:14:06.877Z,97332.31
2022-11-22T07:16:36.111Z,97333.00
2022-11-22T07:19:03.095Z,97326.75
2022-11-22T07:21:30.170Z,97323.81
2022-11-22T07:23:57.143Z,97325.88
2022-11-22T07:26:25.958Z,97320.41
2022-11-22T07:28:53.127Z,97320.78
2022-11-22T07:31:20.762Z,97325.41
2022-11-22T07:33:48.255Z,97320.94
2022-11-22T07:36:20.395Z,97306.69
2022-11-22T07:38:48.712Z,97330.97
2022-11-22T07:41:16.791Z,97326.28
2022-11-22T07:43:44.463Z,97327.47
2022-11-22T07:46:33.512Z,97327.63
2022-11-22T07:49:01.831Z,97297.41
2022-11-22T07:51:29.289Z,97333.09
2022-11-22T07:53:56.825Z,97322.91
2022-11-22T07:56:24.321Z,97325.41
2022-11-22T07:58:51.253Z,97321.72
2022-11-22T08:01:19.529Z,97327.50
2022-11-22T08:03:46.757Z,97316.16
2022-11-22T08:06:14.370Z,97320.28
2022-11-22T08:08:41.920Z,97329.75
2022-11-22T08:11:10.393Z,97330.69
2022-11-22T08:13:37.364Z,97323.50
2022-11-22T08:16:10.555Z,97342.25
2022-11-22T08:18:38.615Z,97335.19
2022-11-22T08:21:07.885Z,97332.78
2022-11-22T08:23:35.370Z,97328.75
2022-11-22T08:26:02.623Z,97315.97
2022-11-22T08:28:29.648Z,97323.88
2022-11-22T08:31:02.240Z,97326.47
2022-11-22T08:33:29.286Z,97323.72
2022-11-22T08:35:56.288Z,97329.00
2022-11-22T08:38:23.254Z,97327.91
2022-11-22T08:40:51.169Z,97320.19
2022-11-22T08:43:18.385Z,97328.94
2022-11-22T08:45:45.425Z,97325.44
2022-11-22T08:48:13.175Z,97323.81
2022-11-22T08:50:42.282Z,97326.44
2022-11-22T08:53:10.411Z,97318.50
2022-11-22T08:55:37.301Z,97321.63
2022-11-22T08:58:04.220Z,97310.84
2022-11-22T09:00:33.553Z,97317.41
2022-11-22T09:03:00.717Z,97315.19
2022-11-22T09:05:27.797Z,97319.31
2022-11-22T09:10:41.711Z,97316.75
2022-11-22T09:13:08.688Z,97303.59
2022-11-22T09:15:35.625Z,97301.31
2022-11-22T09:18:03.890Z,97292.19
2022-11-22T09:20:30.834Z,97298.31
2022-11-22T09:22:57.848Z,97292.81
2022-11-22T09:25:24.702Z,97300.03
2022-11-22T09:27:51.622Z,97303.06
2022-11-22T09:30:18.831Z,97307.50
2022-11-22T09:32:45.790Z,97310.84
2022-11-22T09:35:13.020Z,97305.94
2022-11-22T09:37:39.962Z,97296.72
2022-11-22T09:40:07.627Z,97300.66
2022-11-22T09:42:52.875Z,97286.84
2022-11-22T09:45:42.722Z,97290.38
2022-11-22T09:48:28.264Z,97296.25
2022-11-22T09:51:08.266Z,97288.03
2022-11-22T09:53:38.593Z,97290.75
2022-11-22T09:56:12.321Z,97241.63
2022-11-22T09:58:42.546Z,97295.34
2022-11-22T10:01:19.881Z,97281.31
2022-11-22T10:03:49.456Z,97284.66
2022-11-22T10:06:32.824Z,97282.22
2022-11-22T10:09:29.227Z,97286.38
2022-11-22T10:12:07.508Z,97284.13
2022-11-22T10:14:52.775Z,97286.81
2022-11-22T10:17:22.505Z,97289.09
2022-11-22T10:20:17.037Z,97284.56
2022-11-22T10:22:44.438Z,97277.53
2022-11-22T10:25:23.115Z,97279.78
2022-11-22T10:28:11.549Z,97266.16
2022-11-22T10:30:46.391Z,97276.00
2022-11-22T10:33:36.288Z,97265.03
2022-11-22T10:36:18.524Z,97266.41
2022-11-22T10:38:54.434Z,97257.88
2022-11-22T10:41:34.179Z,97260.31
2022-11-22T10:44:16.081Z,97265.13
2022-11-22T10:47:09.839Z,97262.41
2022-11-22T10:50:01.287Z,97260.38
2022-11-22T10:52:44.582Z,97255.94
2022-11-22T10:55:23.293Z,97250.63
2022-11-22T10:58:14.680Z,97242.38
2022-11-22T11:00:45.565Z,97238.28
2022-11-22T11:03:24.543Z,97244.00
2022-11-22T11:06:43.641Z,97232.84
2022-11-22T11:12:39.112Z,97227.00
2022-11-22T11:15:17.763Z,97232.41
2022-11-22T11:17:49.638Z,97229.06
2022-11-22T11:20:28.989Z,97230.66
2022-11-22T11:25:45.679Z,97199.75
2022-11-22T11:28:23.031Z,97225.53
2022-11-22T11:30:58.861Z,97232.72
2022-11-22T11:33:33.115Z,97227.75
2022-11-22T11:36:04.674Z,97229.94
2022-11-22T11:38:42.375Z,97235.72
2022-11-22T11:41:29.625Z,97225.53
2022-11-22T11:43:58.956Z,97234.00
2022-11-22T11:46:27.916Z,97233.13
2022-11-22T11:49:21.111Z,97228.34
2022-11-22T11:51:53.147Z,97235.97
2022-11-22T11:54:26.883Z,97237.13
2022-11-22T11:56:57.968Z,97236.47
2022-11-22T11:59:43.890Z,97235.22
2022-11-22T12:02:21.746Z,97235.38
2022-11-22T12:04:54.605Z,97230.19
2022-11-22T12:07:39.042Z,97238.16
2022-11-22T12:10:41.329Z,97233.44
2022-11-22T12:13:17.212Z,97232.78
2022-11-22T12:16:11.011Z,97242.13
2022-11-22T12:19:18.080Z,97242.38
2022-11-22T12:22:48.299Z,97241.75
2022-11-22T12:25:40.346Z,97187.53
2022-11-22T12:28:19.935Z,97228.75
2022-11-22T12:30:59.715Z,97230.81
2022-11-22T12:33:33.863Z,97229.97
2022-11-22T12:36:04.146Z,97232.91
2022-11-22T12:38:41.246Z,97228.13
2022-11-22T12:41:13.590Z,97228.75
2022-11-22T12:43:50.416Z,97218.25
2022-11-22T12:46:26.112Z,97223.00
2022-11-22T12:48:59.508Z,97222.38
2022-11-22T12:52:11.466Z,97222.19
2022-11-22T12:54:55.301Z,97205.75
2022-11-22T12:57:32.053Z,97216.13
2022-11-22T13:00:05.123Z,97216.75
2022-11-22T13:02:32.019Z,97227.28
2022-11-22T13:05:05.718Z,97225.66
2022-11-22T13:07:46.267Z,97226.72
2022-11-22T13:10:42.436Z,97223.00
2022-11-22T13:13:24.895Z,97229.81
2022-11-22T13:15:57.225Z,97214.16
2022-11-22T13:18:28.235Z,97216.63
2022-11-22T13:21:26.350Z,97222.00
2022-11-22T13:24:32.082Z,97214.97
2022-11-22T13:27:04.884Z,97213.34
2022-11-22T13:29:35.091Z,97209.00
2022-11-22T13:32:05.905Z,97208.56
2022-11-22T13:34:36.181Z,97201.13
2022-11-22T13:37:10.074Z,97205.03
2022-11-22T13:39:44.081Z,97200.28
2022-11-22T13:42:17.910Z,97201.13
2022-11-22T13:44:57.183Z,97197.81
2022-11-22T13:47:24.118Z,97201.09
2022-11-22T13:49:53.749Z,97198.44
2022-11-22T13:52:20.983Z,97200.47
2022-11-22T13:54:47.976Z,97200.47
2022-11-22T13:57:26.083Z,97183.53
2022-11-22T14:00:14.643Z,97192.41
2022-11-22T14:02:46.340Z,97203.97
2022-11-22T14:05:41.228Z,97202.91
2022-11-22T14:08:30.845Z,97188.88
2022-11-22T14:10:57.766Z,97210.75
2022-11-22T14:13:52.440Z,97208.50
2022-11-22T14:16:48.861Z,97213.00
2022-11-22T14:19:33.657Z,97217.75
2022-11-22T14:22:14.455Z,97212.34
2022-11-22T14:25:19.015Z,97216.28
2022-11-22T14:27:55.175Z,97222.06
2022-11-22T14:30:53.908Z,97223.47
2022-11-22T14:33:23.650Z,97222.81
2022-11-22T14:36:09.745Z,97224.69
2022-11-22T14:38:37.059Z,97228.38
2022-11-22T14:41:28.689Z,97224.25
2022-11-22T14:44:14.637Z,97218.03
2022-11-22T14:46:53.125Z,97227.47
2022-11-22T14:49:44.999Z,97227.38
2022-11-22T14:52:24.825Z,97226.31
2022-11-22T14:55:01.030Z,97227.25
2022-11-22T14:57:31.148Z,97237.06
2022-11-22T15:00:18.533Z,97230.44
2022-11-22T15:03:13.068Z,97234.53
2022-11-22T15:09:11.524Z,97212.47
2022-11-22T15:09:23.701Z,97235.63
2022-11-22T15:11:57.613Z,97235.16
2022-11-22T15:14:52.253Z,97246.22
2022-11-22T15:57:45.583Z,97247.34
2022-11-22T16:00:30.883Z,97236.84
2022-11-22T16:03:06.999Z,97241.78
2022-11-22T16:06:08.554Z,97234.00
2022-11-22T16:08:31.082Z,97236.13
2022-11-22T16:10:59.808Z,97229.34
2022-11-22T16:13:29.550Z,97235.59
2022-11-22T16:16:11.281Z,97237.06
2022-11-22T16:18:39.968Z,97241.38
2022-11-22T16:21:20.660Z,97240.72
2022-11-22T16:23:48.181Z,97249.00
2022-11-22T16:26:18.109Z,97244.75
2022-11-22T16:28:47.925Z,97247.22
2022-11-22T16:31:29.036Z,97241.88
2022-11-22T16:33:56.895Z,97246.22
2022-11-22T16:36:28.309Z,97250.53
2022-11-22T16:38:56.241Z,97241.47
2022-11-22T16:41:30.652Z,97251.59
2022-11-22T16:44:01.999Z,97259.69
2022-11-22T16:46:28.950Z,97253.09
2022-11-22T16:48:56.609Z,97250.25
2022-11-22T16:51:24.731Z,97255.38
2022-11-22T16:53:53.573Z,97253.16
2022-11-22T16:56:28.882Z,97266.72
2022-11-22T16:58:57.647Z,97267.16
2022-11-22T17:01:27.538Z,97272.50
2022-11-22T17:03:57.093Z,97272.50
2022-11-22T17:06:26.519Z,97279.53
2022-11-22T17:08:56.211Z,97263.88
2022-11-22T17:11:30.603Z,97271.25
2022-11-22T17:13:58.614Z,97275.75
2022-11-22T17:16:25.581Z,97273.69
2022-11-22T17:18:54.176Z,97268.22
2022-11-22T17:21:37.326Z,97275.88
2022-11-22T17:24:09.536Z,97279.78
2022-11-22T17:26:36.609Z,97281.69
2022-11-22T17:29:03.654Z,97283.28
2022-11-22T17:31:30.766Z,97291.22
2022-11-22T17:33:59.729Z,97291.19
2022-11-22T17:36:30.643Z,97286.19
2022-11-22T17:38:59.853Z,97276.09
2022-11-22T17:41:27.762Z,97287.28
2022-11-22T17:43:54.988Z,97286.66
2022-11-22T17:46:22.595Z,97288.25
2022-11-22T17:48:58.287Z,97287.44
2022-11-22T17:51:29.286Z,97288.25
2022-11-22T17:53:58.559Z,97290.28
2022-11-22T17:56:27.360Z,97290.38
2022-11-22T17:58:54.229Z,97286.88
2022-11-22T18:01:22.885Z,97293.41
2022-11-22T18:03:50.062Z,97241.03
2022-11-22T18:06:18.618Z,97282.69
2022-11-22T18:08:47.375Z,97293.38
2022-11-22T18:11:15.580Z,97299.72
2022-11-22T18:13:42.668Z,97297.09
2022-11-22T18:16:15.815Z,97299.19
2022-11-22T18:18:58.783Z,97299.19
2022-11-22T18:21:30.057Z,97306.22
2022-11-22T18:24:01.364Z,97317.16
2022-11-22T18:26:39.320Z,97229.31
2022-11-22T18:31:55.288Z,97309.97
2022-11-22T18:34:25.559Z,97286.28
2022-11-22T18:36:56.351Z,97298.47
2022-11-22T18:39:26.910Z,97302.41
2022-11-22T18:41:54.172Z,97298.50
2022-11-22T19:10:45.695Z,97268.84
2022-11-22T19:13:45.551Z,97311.81
2022-11-22T19:19:32.365Z,97312.38
2022-11-22T19:22:51.699Z,97315.09
2022-11-22T19:25:26.848Z,97310.72
2022-11-22T19:28:33.986Z,97315.13
2022-11-22T19:31:21.682Z,97311.38
2022-11-22T19:33:50.623Z,97305.78
2022-11-22T19:36:34.189Z,97284.25
2022-11-22T19:39:15.383Z,97304.66
2022-11-22T19:42:19.167Z,97301.25
2022-11-22T19:44:50.382Z,97297.50
2022-11-22T19:47:19.710Z,97280.84
2022-11-22T19:49:47.311Z,97289.31
2022-11-22T19:52:15.375Z,97323.25
2022-11-22T19:54:43.923Z,97312.84
2022-11-22T19:57:12.124Z,97314.63
2022-11-22T19:59:43.034Z,97340.50
2022-11-22T20:02:11.567Z,97278.31
2022-11-22T20:04:39.726Z,97338.66
2022-11-22T20:07:09.350Z,97352.03
2022-11-22T20:09:51.241Z,97335.00
2022-11-22T20:34:58.442Z,97341.25
2022-11-22T20:37:25.539Z,97343.94
2022-11-22T20:39:52.440Z,97343.09
2022-11-22T20:42:34.287Z,97354.97
2022-11-22T20:45:01.698Z,97350.06
2022-11-22T20:47:28.589Z,97353.00
2022-11-22T20:49:55.554Z,97364.66
2022-11-22T20:52:22.535Z,97373.50
2022-11-22T20:54:49.430Z,97367.06
2022-11-22T20:57:16.540Z,97374.97
2022-11-22T20:59:43.596Z,97332.09
2022-11-22T21:02:11.316Z,97363.47
2022-11-22T21:04:38.250Z,97372.50
2022-11-22T21:07:05.206Z,97365.78
2022-11-22T21:09:32.160Z,97369.25
2022-11-22T21:11:59.057Z,97373.81
2022-11-22T21:14:25.946Z,97384.31
2022-11-22T21:16:53.103Z,97379.47
2022-11-22T21:19:20.070Z,97383.97
2022-11-22T21:21:46.991Z,97369.69
2022-11-22T21:24:14.257Z,97366.88
2022-11-22T21:26:41.157Z,97378.28
2022-11-22T21:29:16.188Z,97374.28
2022-11-22T21:31:43.577Z,97370.34
2022-11-22T21:34:10.675Z,97382.66
2022-11-22T21:36:37.599Z,97384.22
2022-11-22T21:39:04.567Z,97373.41
2022-11-22T21:41:39.995Z,97373.56
2022-11-22T21:44:08.761Z,97376.91
2022-11-22T21:46:35.761Z,97390.06
2022-11-22T21:49:02.667Z,97379.44
2022-11-22T21:51:30.825Z,97369.34
2022-11-22T21:53:59.196Z,97376.84
2022-11-22T21:56:26.580Z,97369.72
2022-11-22T21:58:53.534Z,97381.56
2022-11-22T22:01:20.575Z,97372.91
2022-11-22T22:03:47.517Z,97379.06
2022-11-22T22:06:14.449Z,97385.75
2022-11-22T22:08:41.450Z,97373.97
2022-11-22T22:11:08.572Z,97363.50
2022-11-22T22:13:35.649Z,97382.13
2022-11-22T22:16:06.895Z,97380.44
2022-11-22T22:18:35.460Z,97380.94
2022-11-22T22:21:04.911Z,97386.75
2022-11-22T22:23:33.476Z,97375.44
2022-11-22T22:26:02.090Z,97369.34
2022-11-22T22:28:30.541Z,97365.50
2022-11-22T22:31:06.099Z,97373.81
2022-11-22T22:33:33.920Z,97374.66
2022-11-22T22:36:01.364Z,97367.81
2022-11-22T22:38:31.060Z,97366.34
2022-11-22T22:41:00.360Z,97371.13
2022-11-22T22:43:31.539Z,97351.91
2022-11-22T22:46:13.755Z,97362.53
2022-11-22T22:48:41.589Z,97356.38
2022-11-22T22:51:15.283Z,97362.69
2022-11-22T22:53:43.064Z,97374.97
2022-11-22T22:56:11.742Z,97372.81
2022-11-22T22:58:38.982Z,97376.97
2022-11-22T23:01:06.134Z,97369.81
2022-11-22T23:03:33.296Z,97358.19
2022-11-22T23:06:04.117Z,97370.13
2022-11-22T23:08:30.981Z,97369.00
2022-11-22T23:11:12.059Z,97374.78
2022-11-22T23:13:41.030Z,97373.47
2022-11-22T23:16:10.540Z,97385.91
2022-11-22T23:18:45.002Z,97383.44
2022-11-22T23:21:14.627Z,97378.13
2022-11-22T23:23:41.867Z,97381.94
2022-11-22T23:26:11.347Z,97377.94
2022-11-22T23:28:38.835Z,97363.00
2022-11-22T23:31:07.791Z,97382.75
2022-11-22T23:33:35.334Z,97382.06
2022-11-22T23:36:06.943Z,97383.75
2022-11-22T23:38:34.223Z,97365.50
2022-11-22T23:41:01.385Z,97372.28
2022-11-22T23:43:29.015Z,97374.25
2022-11-22T23:45:56.309Z,97380.59
2022-11-22T23:48:23.205Z,97380.75
2022-11-22T23:50:50.140Z,97383.41
2022-11-22T23:53:17.059Z,97376.75
2022-11-22T23:55:43.982Z,97374.75
2022-11-22T23:58:10.957Z,97376.75
